sensor_id;sensor_type;location;lat;lon;timestamp;temperature;humidity
45643;DHT22;31358;46.008;11.144;2023-09-12T00:01:59;21.10;99.90
45643;DHT22;31358;46.008;11.144;2023-09-12T00:04:25;21.10;99.90
45643;DHT22;31358;46.008;11.144;2023-09-12T00:06:50;21.20;99.90
45643;DHT22;31358;46.008;11.144;2023-09-12T00:09:16;20.90;99.90
45643;DHT22;31358;46.008;11.144;2023-09-12T00:11:42;20.70;99.90
45643;DHT22;31358;46.008;11.144;2023-09-12T00:14:09;20.60;99.90
45643;DHT22;31358;46.008;11.144;2023-09-12T00:16:35;20.70;99.90
45643;DHT22;31358;46.008;11.144;2023-09-12T00:19:00;20.60;99.90
45643;DHT22;31358;46.008;11.144;2023-09-12T00:21:26;20.40;99.90
45643;DHT22;31358;46.008;11.144;2023-09-12T00:23:51;20.20;99.90
45643;DHT22;31358;46.008;11.144;2023-09-12T00:26:17;20.10;99.90
45643;DHT22;31358;46.008;11.144;2023-09-12T00:28:43;20.10;99.90
45643;DHT22;31358;46.008;11.144;2023-09-12T00:31:08;20.20;99.90
45643;DHT22;31358;46.008;11.144;2023-09-12T00:33:34;20.30;99.90
45643;DHT22;31358;46.008;11.144;2023-09-12T00:35:59;20.50;99.90
45643;DHT22;31358;46.008;11.144;2023-09-12T00:38:25;20.50;99.90
45643;DHT22;31358;46.008;11.144;2023-09-12T00:40:51;20.50;99.90
45643;DHT22;31358;46.008;11.144;2023-09-12T00:43:16;20.50;99.90
45643;DHT22;31358;46.008;11.144;2023-09-12T00:45:42;20.50;99.90
45643;DHT22;31358;46.008;11.144;2023-09-12T00:48:09;20.50;99.90
45643;DHT22;31358;46.008;11.144;2023-09-12T00:50:35;20.50;99.90
45643;DHT22;31358;46.008;11.144;2023-09-12T00:53:03;20.50;99.90
45643;DHT22;31358;46.008;11.144;2023-09-12T00:55:29;20.50;99.90
45643;DHT22;31358;46.008;11.144;2023-09-12T00:57:56;20.40;99.90
45643;DHT22;31358;46.008;11.144;2023-09-12T01:00:22;20.50;99.90
45643;DHT22;31358;46.008;11.144;2023-09-12T01:02:48;20.50;99.90
45643;DHT22;31358;46.008;11.144;2023-09-12T01:05:15;20.40;99.90
45643;DHT22;31358;46.008;11.144;2023-09-12T01:07:43;20.40;99.90
45643;DHT22;31358;46.008;11.144;2023-09-12T01:10:09;20.30;99.90
45643;DHT22;31358;46.008;11.144;2023-09-12T01:12:35;20.10;99.90
45643;DHT22;31358;46.008;11.144;2023-09-12T01:15:01;20.10;99.90
45643;DHT22;31358;46.008;11.144;2023-09-12T01:17:31;20.00;99.90
45643;DHT22;31358;46.008;11.144;2023-09-12T01:19:57;20.00;99.90
45643;DHT22;31358;46.008;11.144;2023-09-12T01:28:09;19.90;99.90
45643;DHT22;31358;46.008;11.144;2023-09-12T01:30:36;20.00;99.90
45643;DHT22;31358;46.008;11.144;2023-09-12T01:33:04;20.00;99.90
45643;DHT22;31358;46.008;11.144;2023-09-12T01:35:30;20.00;99.90
45643;DHT22;31358;46.008;11.144;2023-09-12T01:37:56;20.00;99.90
45643;DHT22;31358;46.008;11.144;2023-09-12T01:40:35;20.00;99.90
45643;DHT22;31358;46.008;11.144;2023-09-12T01:43:04;19.80;99.90
45643;DHT22;31358;46.008;11.144;2023-09-12T01:45:31;19.70;99.90
45643;DHT22;31358;46.008;11.144;2023-09-12T01:47:58;19.60;99.90
45643;DHT22;31358;46.008;11.144;2023-09-12T01:50:25;19.50;99.90
45643;DHT22;31358;46.008;11.144;2023-09-12T01:52:53;19.40;99.90
45643;DHT22;31358;46.008;11.144;2023-09-12T01:55:19;19.30;99.90
45643;DHT22;31358;46.008;11.144;2023-09-12T01:57:45;19.20;99.90
45643;DHT22;31358;46.008;11.144;2023-09-12T02:00:13;19.20;99.90
45643;DHT22;31358;46.008;11.144;2023-09-12T02:02:39;19.30;99.90
45643;DHT22;31358;46.008;11.144;2023-09-12T02:05:15;19.30;99.90
45643;DHT22;31358;46.008;11.144;2023-09-12T02:07:43;19.40;99.90
45643;DHT22;31358;46.008;11.144;2023-09-12T02:10:09;19.40;99.90
45643;DHT22;31358;46.008;11.144;2023-09-12T02:12:35;19.40;99.90
45643;DHT22;31358;46.008;11.144;2023-09-12T02:15:01;19.50;99.90
45643;DHT22;31358;46.008;11.144;2023-09-12T02:17:27;19.60;99.90
45643;DHT22;31358;46.008;11.144;2023-09-12T02:19:53;19.50;99.90
45643;DHT22;31358;46.008;11.144;2023-09-12T02:22:18;19.50;99.90
45643;DHT22;31358;46.008;11.144;2023-09-12T02:24:44;19.60;99.90
45643;DHT22;31358;46.008;11.144;2023-09-12T02:27:10;19.80;99.90
45643;DHT22;31358;46.008;11.144;2023-09-12T02:29:36;19.70;99.90
45643;DHT22;31358;46.008;11.144;2023-09-12T02:32:02;19.70;99.90
45643;DHT22;31358;46.008;11.144;2023-09-12T02:34:28;19.60;99.90
45643;DHT22;31358;46.008;11.144;2023-09-12T02:36:53;19.60;99.90
45643;DHT22;31358;46.008;11.144;2023-09-12T02:39:19;19.50;99.90
45643;DHT22;31358;46.008;11.144;2023-09-12T02:41:45;19.40;99.90
45643;DHT22;31358;46.008;11.144;2023-09-12T02:44:10;19.40;99.90
45643;DHT22;31358;46.008;11.144;2023-09-12T02:46:37;19.40;99.90
45643;DHT22;31358;46.008;11.144;2023-09-12T02:49:03;19.50;99.90
45643;DHT22;31358;46.008;11.144;2023-09-12T02:51:29;19.70;99.90
45643;DHT22;31358;46.008;11.144;2023-09-12T02:53:55;19.70;99.90
45643;DHT22;31358;46.008;11.144;2023-09-12T02:56:20;19.70;99.90
45643;DHT22;31358;46.008;11.144;2023-09-12T02:58:46;19.60;99.90
45643;DHT22;31358;46.008;11.144;2023-09-12T03:01:16;19.60;99.90
45643;DHT22;31358;46.008;11.144;2023-09-12T03:03:42;19.40;99.90
45643;DHT22;31358;46.008;11.144;2023-09-12T03:06:12;19.40;99.90
45643;DHT22;31358;46.008;11.144;2023-09-12T03:08:39;19.40;99.90
45643;DHT22;31358;46.008;11.144;2023-09-12T03:11:05;19.50;99.90
45643;DHT22;31358;46.008;11.144;2023-09-12T03:13:33;19.50;99.90
45643;DHT22;31358;46.008;11.144;2023-09-12T03:15:59;19.70;99.90
45643;DHT22;31358;46.008;11.144;2023-09-12T03:18:25;19.80;99.90
45643;DHT22;31358;46.008;11.144;2023-09-12T03:20:51;19.80;99.90
45643;DHT22;31358;46.008;11.144;2023-09-12T03:23:17;19.80;99.90
45643;DHT22;31358;46.008;11.144;2023-09-12T03:25:42;19.70;99.90
45643;DHT22;31358;46.008;11.144;2023-09-12T03:28:08;19.80;99.90
45643;DHT22;31358;46.008;11.144;2023-09-12T03:30:35;19.70;99.90
45643;DHT22;31358;46.008;11.144;2023-09-12T03:33:01;19.60;99.90
45643;DHT22;31358;46.008;11.144;2023-09-12T03:35:28;19.50;99.90
45643;DHT22;31358;46.008;11.144;2023-09-12T03:37:54;19.50;99.90
45643;DHT22;31358;46.008;11.144;2023-09-12T03:40:20;19.50;99.90
45643;DHT22;31358;46.008;11.144;2023-09-12T03:42:46;19.10;99.90
45643;DHT22;31358;46.008;11.144;2023-09-12T03:45:11;19.20;99.90
45643;DHT22;31358;46.008;11.144;2023-09-12T03:47:37;19.20;99.90
45643;DHT22;31358;46.008;11.144;2023-09-12T03:50:03;19.30;99.90
45643;DHT22;31358;46.008;11.144;2023-09-12T03:52:29;19.30;99.90
45643;DHT22;31358;46.008;11.144;2023-09-12T03:54:55;19.30;99.90
45643;DHT22;31358;46.008;11.144;2023-09-12T03:57:21;19.40;99.90
45643;DHT22;31358;46.008;11.144;2023-09-12T03:59:47;19.50;99.90
45643;DHT22;31358;46.008;11.144;2023-09-12T04:02:13;19.50;99.90
45643;DHT22;31358;46.008;11.144;2023-09-12T04:04:39;19.40;99.90
45643;DHT22;31358;46.008;11.144;2023-09-12T04:07:05;19.30;99.90
45643;DHT22;31358;46.008;11.144;2023-09-12T04:09:31;19.30;99.90
45643;DHT22;31358;46.008;11.144;2023-09-12T04:11:56;19.20;99.90
45643;DHT22;31358;46.008;11.144;2023-09-12T04:14:22;19.20;99.90
45643;DHT22;31358;46.008;11.144;2023-09-12T04:16:48;19.20;99.90
45643;DHT22;31358;46.008;11.144;2023-09-12T04:19:14;19.30;99.90
45643;DHT22;31358;46.008;11.144;2023-09-12T04:21:40;19.30;99.90
45643;DHT22;31358;46.008;11.144;2023-09-12T04:24:07;19.30;99.90
45643;DHT22;31358;46.008;11.144;2023-09-12T04:26:33;19.30;99.90
45643;DHT22;31358;46.008;11.144;2023-09-12T04:28:58;19.30;99.90
45643;DHT22;31358;46.008;11.144;2023-09-12T04:31:24;19.30;99.90
45643;DHT22;31358;46.008;11.144;2023-09-12T04:33:53;19.30;99.90
45643;DHT22;31358;46.008;11.144;2023-09-12T04:36:20;19.30;99.90
45643;DHT22;31358;46.008;11.144;2023-09-12T04:38:46;19.30;99.90
45643;DHT22;31358;46.008;11.144;2023-09-12T04:41:13;19.10;99.90
45643;DHT22;31358;46.008;11.144;2023-09-12T04:43:45;19.20;99.90
45643;DHT22;31358;46.008;11.144;2023-09-12T04:46:11;19.30;99.90
45643;DHT22;31358;46.008;11.144;2023-09-12T04:48:38;19.20;99.90
45643;DHT22;31358;46.008;11.144;2023-09-12T04:51:04;19.30;99.90
45643;DHT22;31358;46.008;11.144;2023-09-12T04:53:29;19.30;99.90
45643;DHT22;31358;46.008;11.144;2023-09-12T04:56:02;19.20;99.90
45643;DHT22;31358;46.008;11.144;2023-09-12T04:58:28;19.20;99.90
45643;DHT22;31358;46.008;11.144;2023-09-12T05:00:54;19.20;99.90
45643;DHT22;31358;46.008;11.144;2023-09-12T05:03:21;19.10;99.90
45643;DHT22;31358;46.008;11.144;2023-09-12T05:05:50;18.80;99.90
45643;DHT22;31358;46.008;11.144;2023-09-12T05:08:16;18.80;99.90
45643;DHT22;31358;46.008;11.144;2023-09-12T05:10:46;18.70;99.90
45643;DHT22;31358;46.008;11.144;2023-09-12T05:13:13;18.60;99.90
45643;DHT22;31358;46.008;11.144;2023-09-12T05:15:40;18.60;99.90
45643;DHT22;31358;46.008;11.144;2023-09-12T05:18:07;18.80;99.90
45643;DHT22;31358;46.008;11.144;2023-09-12T05:20:35;18.80;99.90
45643;DHT22;31358;46.008;11.144;2023-09-12T05:23:01;18.80;99.90
45643;DHT22;31358;46.008;11.144;2023-09-12T05:25:27;18.80;99.90
45643;DHT22;31358;46.008;11.144;2023-09-12T05:27:54;18.80;99.90
45643;DHT22;31358;46.008;11.144;2023-09-12T05:30:20;18.80;99.90
45643;DHT22;31358;46.008;11.144;2023-09-12T05:32:46;18.80;99.90
45643;DHT22;31358;46.008;11.144;2023-09-12T05:35:11;18.80;99.90
45643;DHT22;31358;46.008;11.144;2023-09-12T05:37:37;18.80;99.90
45643;DHT22;31358;46.008;11.144;2023-09-12T05:40:03;18.80;99.90
45643;DHT22;31358;46.008;11.144;2023-09-12T05:42:29;18.70;99.90
45643;DHT22;31358;46.008;11.144;2023-09-12T05:44:55;18.70;99.90
45643;DHT22;31358;46.008;11.144;2023-09-12T05:47:22;18.60;99.90
45643;DHT22;31358;46.008;11.144;2023-09-12T05:49:47;18.60;99.90
45643;DHT22;31358;46.008;11.144;2023-09-12T05:52:13;18.60;99.90
45643;DHT22;31358;46.008;11.144;2023-09-12T05:54:39;18.60;99.90
45643;DHT22;31358;46.008;11.144;2023-09-12T05:57:06;18.60;99.90
45643;DHT22;31358;46.008;11.144;2023-09-12T05:59:34;18.70;99.90
45643;DHT22;31358;46.008;11.144;2023-09-12T06:01:59;18.80;99.90
45643;DHT22;31358;46.008;11.144;2023-09-12T06:04:25;18.80;99.90
45643;DHT22;31358;46.008;11.144;2023-09-12T06:06:51;18.90;99.90
45643;DHT22;31358;46.008;11.144;2023-09-12T06:09:16;19.00;99.90
45643;DHT22;31358;46.008;11.144;2023-09-12T06:11:42;19.10;99.90
45643;DHT22;31358;46.008;11.144;2023-09-12T06:14:07;19.20;99.90
45643;DHT22;31358;46.008;11.144;2023-09-12T06:16:33;19.20;99.90
45643;DHT22;31358;46.008;11.144;2023-09-12T06:18:59;19.20;99.90
45643;DHT22;31358;46.008;11.144;2023-09-12T06:21:24;19.30;99.90
45643;DHT22;31358;46.008;11.144;2023-09-12T06:24:14;19.30;99.90
45643;DHT22;31358;46.008;11.144;2023-09-12T06:26:40;19.40;99.90
45643;DHT22;31358;46.008;11.144;2023-09-12T06:29:06;19.50;99.90
45643;DHT22;31358;46.008;11.144;2023-09-12T06:31:32;19.50;99.90
45643;DHT22;31358;46.008;11.144;2023-09-12T06:33:58;19.50;99.90
45643;DHT22;31358;46.008;11.144;2023-09-12T06:36:28;19.50;99.90
45643;DHT22;31358;46.008;11.144;2023-09-12T06:38:57;19.50;99.90
45643;DHT22;31358;46.008;11.144;2023-09-12T06:41:23;19.50;99.90
45643;DHT22;31358;46.008;11.144;2023-09-12T06:43:49;19.60;99.90
45643;DHT22;31358;46.008;11.144;2023-09-12T06:46:14;19.60;99.90
45643;DHT22;31358;46.008;11.144;2023-09-12T06:48:43;19.70;99.90
45643;DHT22;31358;46.008;11.144;2023-09-12T06:51:10;19.90;99.90
45643;DHT22;31358;46.008;11.144;2023-09-12T06:53:35;19.90;99.90
45643;DHT22;31358;46.008;11.144;2023-09-12T06:56:04;19.90;99.90
45643;DHT22;31358;46.008;11.144;2023-09-12T06:58:30;19.90;99.90
45643;DHT22;31358;46.008;11.144;2023-09-12T07:00:56;20.90;99.90
45643;DHT22;31358;46.008;11.144;2023-09-12T07:03:26;23.10;99.90
45643;DHT22;31358;46.008;11.144;2023-09-12T07:05:51;24.40;99.90
45643;DHT22;31358;46.008;11.144;2023-09-12T07:08:17;25.20;99.90
45643;DHT22;31358;46.008;11.144;2023-09-12T07:10:46;24.90;99.90
45643;DHT22;31358;46.008;11.144;2023-09-12T07:13:12;24.40;99.90
45643;DHT22;31358;46.008;11.144;2023-09-12T07:15:38;22.90;99.90
45643;DHT22;31358;46.008;11.144;2023-09-12T07:18:04;21.90;99.90
45643;DHT22;31358;46.008;11.144;2023-09-12T07:20:34;21.40;99.90
45643;DHT22;31358;46.008;11.144;2023-09-12T07:23:00;21.10;99.90
45643;DHT22;31358;46.008;11.144;2023-09-12T07:25:26;21.10;99.90
45643;DHT22;31358;46.008;11.144;2023-09-12T07:27:52;21.10;99.90
45643;DHT22;31358;46.008;11.144;2023-09-12T07:30:18;21.20;99.90
45643;DHT22;31358;46.008;11.144;2023-09-12T07:32:44;21.10;99.90
45643;DHT22;31358;46.008;11.144;2023-09-12T07:35:10;21.20;99.90
45643;DHT22;31358;46.008;11.144;2023-09-12T07:37:36;21.20;99.90
45643;DHT22;31358;46.008;11.144;2023-09-12T07:40:01;21.30;99.90
45643;DHT22;31358;46.008;11.144;2023-09-12T07:42:35;21.40;99.90
45643;DHT22;31358;46.008;11.144;2023-09-12T07:45:01;21.50;99.90
45643;DHT22;31358;46.008;11.144;2023-09-12T07:47:28;21.50;99.90
45643;DHT22;31358;46.008;11.144;2023-09-12T07:49:54;21.50;99.90
45643;DHT22;31358;46.008;11.144;2023-09-12T07:52:20;21.50;99.90
45643;DHT22;31358;46.008;11.144;2023-09-12T07:54:46;21.50;99.90
45643;DHT22;31358;46.008;11.144;2023-09-12T07:57:11;21.50;99.90
45643;DHT22;31358;46.008;11.144;2023-09-12T07:59:37;21.50;99.90
45643;DHT22;31358;46.008;11.144;2023-09-12T08:02:02;21.60;99.90
45643;DHT22;31358;46.008;11.144;2023-09-12T08:04:29;21.60;99.90
45643;DHT22;31358;46.008;11.144;2023-09-12T08:06:55;21.70;99.90
45643;DHT22;31358;46.008;11.144;2023-09-12T08:09:20;21.70;99.90
45643;DHT22;31358;46.008;11.144;2023-09-12T08:11:46;21.70;99.90
45643;DHT22;31358;46.008;11.144;2023-09-12T08:14:11;21.70;99.90
45643;DHT22;31358;46.008;11.144;2023-09-12T08:16:37;21.80;99.90
45643;DHT22;31358;46.008;11.144;2023-09-12T08:19:04;21.90;99.90
45643;DHT22;31358;46.008;11.144;2023-09-12T08:21:29;22.10;99.90
45643;DHT22;31358;46.008;11.144;2023-09-12T08:23:55;22.10;99.90
45643;DHT22;31358;46.008;11.144;2023-09-12T08:26:21;22.30;99.90
45643;DHT22;31358;46.008;11.144;2023-09-12T08:28:46;22.30;99.90
45643;DHT22;31358;46.008;11.144;2023-09-12T08:31:12;22.40;99.90
45643;DHT22;31358;46.008;11.144;2023-09-12T08:33:38;22.50;99.90
45643;DHT22;31358;46.008;11.144;2023-09-12T08:36:03;22.50;99.90
45643;DHT22;31358;46.008;11.144;2023-09-12T08:38:29;22.50;99.90
45643;DHT22;31358;46.008;11.144;2023-09-12T08:40:55;22.70;99.90
45643;DHT22;31358;46.008;11.144;2023-09-12T08:43:22;22.80;99.90
45643;DHT22;31358;46.008;11.144;2023-09-12T08:45:48;22.70;99.90
45643;DHT22;31358;46.008;11.144;2023-09-12T08:48:15;22.70;99.90
45643;DHT22;31358;46.008;11.144;2023-09-12T08:50:41;22.90;99.90
45643;DHT22;31358;46.008;11.144;2023-09-12T08:53:07;23.00;99.90
45643;DHT22;31358;46.008;11.144;2023-09-12T08:55:33;23.00;99.90
45643;DHT22;31358;46.008;11.144;2023-09-12T08:58:02;23.20;99.90
45643;DHT22;31358;46.008;11.144;2023-09-12T09:00:28;23.40;99.90
45643;DHT22;31358;46.008;11.144;2023-09-12T09:02:54;25.10;99.90
45643;DHT22;31358;46.008;11.144;2023-09-12T09:05:21;27.50;97.90
45643;DHT22;31358;46.008;11.144;2023-09-12T09:07:48;29.20;96.50
45643;DHT22;31358;46.008;11.144;2023-09-12T09:10:18;28.30;96.10
45643;DHT22;31358;46.008;11.144;2023-09-12T09:12:46;26.60;98.30
45643;DHT22;31358;46.008;11.144;2023-09-12T09:17:48;25.50;99.40
45643;DHT22;31358;46.008;11.144;2023-09-12T09:20:42;27.50;99.00
45643;DHT22;31358;46.008;11.144;2023-09-12T09:23:10;26.60;98.30
45643;DHT22;31358;46.008;11.144;2023-09-12T09:25:39;25.00;99.10
45643;DHT22;31358;46.008;11.144;2023-09-12T09:28:17;24.80;99.40
45643;DHT22;31358;46.008;11.144;2023-09-12T09:30:44;24.70;99.90
45643;DHT22;31358;46.008;11.144;2023-09-12T09:33:11;27.50;98.90
45643;DHT22;31358;46.008;11.144;2023-09-12T09:35:38;29.10;96.20
45643;DHT22;31358;46.008;11.144;2023-09-12T09:38:06;29.50;96.50
45643;DHT22;31358;46.008;11.144;2023-09-12T09:40:33;30.30;95.30
45643;DHT22;31358;46.008;11.144;2023-09-12T09:42:59;29.90;95.10
45643;DHT22;31358;46.008;11.144;2023-09-12T09:45:27;29.90;95.20
45643;DHT22;31358;46.008;11.144;2023-09-12T09:47:56;28.40;96.30
45643;DHT22;31358;46.008;11.144;2023-09-12T09:50:22;27.70;96.30
45643;DHT22;31358;46.008;11.144;2023-09-12T09:52:54;27.40;97.40
45643;DHT22;31358;46.008;11.144;2023-09-12T09:55:20;26.60;97.50
45643;DHT22;31358;46.008;11.144;2023-09-12T09:57:46;25.80;98.30
45643;DHT22;31358;46.008;11.144;2023-09-12T10:00:13;25.10;98.90
45643;DHT22;31358;46.008;11.144;2023-09-12T10:02:41;24.80;99.00
45643;DHT22;31358;46.008;11.144;2023-09-12T10:05:09;24.70;98.80
45643;DHT22;31358;46.008;11.144;2023-09-12T10:07:37;24.60;98.90
45643;DHT22;31358;46.008;11.144;2023-09-12T10:10:04;24.90;99.30
45643;DHT22;31358;46.008;11.144;2023-09-12T10:12:35;25.00;99.80
45643;DHT22;31358;46.008;11.144;2023-09-12T10:15:01;25.10;99.20
45643;DHT22;31358;46.008;11.144;2023-09-12T10:17:36;25.00;99.00
45643;DHT22;31358;46.008;11.144;2023-09-12T10:20:03;24.70;99.00
45643;DHT22;31358;46.008;11.144;2023-09-12T10:22:39;24.90;99.90
45643;DHT22;31358;46.008;11.144;2023-09-12T10:25:07;25.30;99.90
45643;DHT22;31358;46.008;11.144;2023-09-12T10:27:33;25.40;98.70
45643;DHT22;31358;46.008;11.144;2023-09-12T10:30:00;25.40;98.60
45643;DHT22;31358;46.008;11.144;2023-09-12T10:32:28;25.40;98.70
45643;DHT22;31358;46.008;11.144;2023-09-12T10:34:58;25.50;99.10
45643;DHT22;31358;46.008;11.144;2023-09-12T10:37:25;25.40;98.70
45643;DHT22;31358;46.008;11.144;2023-09-12T10:39:56;25.40;99.00
45643;DHT22;31358;46.008;11.144;2023-09-12T10:42:24;25.40;99.30
45643;DHT22;31358;46.008;11.144;2023-09-12T10:44:51;25.40;99.00
45643;DHT22;31358;46.008;11.144;2023-09-12T10:47:17;25.50;99.80
45643;DHT22;31358;46.008;11.144;2023-09-12T10:49:44;25.80;99.30
45643;DHT22;31358;46.008;11.144;2023-09-12T10:52:10;25.70;98.70
45643;DHT22;31358;46.008;11.144;2023-09-12T10:54:40;25.80;98.80
45643;DHT22;31358;46.008;11.144;2023-09-12T10:57:07;25.70;98.50
45643;DHT22;31358;46.008;11.144;2023-09-12T10:59:33;25.90;98.30
45643;DHT22;31358;46.008;11.144;2023-09-12T11:02:36;26.10;98.10
45643;DHT22;31358;46.008;11.144;2023-09-12T11:07:56;25.90;99.30
45643;DHT22;31358;46.008;11.144;2023-09-12T11:10:23;26.30;98.30
45643;DHT22;31358;46.008;11.144;2023-09-12T11:12:51;26.60;97.70
45643;DHT22;31358;46.008;11.144;2023-09-12T11:15:18;26.50;97.90
45643;DHT22;31358;46.008;11.144;2023-09-12T11:17:45;26.90;98.00
45643;DHT22;31358;46.008;11.144;2023-09-12T11:20:13;27.10;97.40
45643;DHT22;31358;46.008;11.144;2023-09-12T11:22:42;27.20;97.50
45643;DHT22;31358;46.008;11.144;2023-09-12T11:25:25;27.00;97.10
45643;DHT22;31358;46.008;11.144;2023-09-12T11:30:20;26.90;97.00
45643;DHT22;31358;46.008;11.144;2023-09-12T11:32:48;27.20;97.00
45643;DHT22;31358;46.008;11.144;2023-09-12T11:35:16;27.30;97.50
45643;DHT22;31358;46.008;11.144;2023-09-12T11:38:10;27.60;96.80
45643;DHT22;31358;46.008;11.144;2023-09-12T11:43:02;27.30;96.80
45643;DHT22;31358;46.008;11.144;2023-09-12T11:45:29;27.50;96.80
45643;DHT22;31358;46.008;11.144;2023-09-12T11:47:55;27.50;96.80
45643;DHT22;31358;46.008;11.144;2023-09-12T11:50:34;27.50;97.50
45643;DHT22;31358;46.008;11.144;2023-09-12T11:53:10;27.50;97.10
45643;DHT22;31358;46.008;11.144;2023-09-12T11:55:42;27.50;97.10
45643;DHT22;31358;46.008;11.144;2023-09-12T11:58:08;27.70;97.20
45643;DHT22;31358;46.008;11.144;2023-09-12T12:00:34;27.80;97.60
45643;DHT22;31358;46.008;11.144;2023-09-12T12:03:00;27.50;97.10
45643;DHT22;31358;46.008;11.144;2023-09-12T12:05:25;27.30;97.30
45643;DHT22;31358;46.008;11.144;2023-09-12T12:07:51;27.40;97.80
45643;DHT22;31358;46.008;11.144;2023-09-12T12:10:17;27.70;97.40
45643;DHT22;31358;46.008;11.144;2023-09-12T12:12:46;27.80;98.10
45643;DHT22;31358;46.008;11.144;2023-09-12T12:15:13;28.20;98.50
45643;DHT22;31358;46.008;11.144;2023-09-12T12:17:41;28.10;97.30
45643;DHT22;31358;46.008;11.144;2023-09-12T12:20:09;28.00;98.00
45643;DHT22;31358;46.008;11.144;2023-09-12T12:22:39;27.80;97.40
45643;DHT22;31358;46.008;11.144;2023-09-12T12:25:11;27.50;97.30
45643;DHT22;31358;46.008;11.144;2023-09-12T12:27:41;27.50;98.20
45643;DHT22;31358;46.008;11.144;2023-09-12T12:30:11;27.70;98.20
45643;DHT22;31358;46.008;11.144;2023-09-12T12:32:41;28.00;98.20
45643;DHT22;31358;46.008;11.144;2023-09-12T12:35:16;28.20;97.30
45643;DHT22;31358;46.008;11.144;2023-09-12T12:37:42;28.30;97.40
45643;DHT22;31358;46.008;11.144;2023-09-12T12:40:11;28.30;97.30
45643;DHT22;31358;46.008;11.144;2023-09-12T12:42:39;28.40;97.40
45643;DHT22;31358;46.008;11.144;2023-09-12T12:45:17;28.60;97.60
45643;DHT22;31358;46.008;11.144;2023-09-12T12:47:43;28.70;97.70
45643;DHT22;31358;46.008;11.144;2023-09-12T12:50:13;28.80;97.80
45643;DHT22;31358;46.008;11.144;2023-09-12T12:52:39;29.00;97.70
45643;DHT22;31358;46.008;11.144;2023-09-12T12:55:15;28.90;97.70
45643;DHT22;31358;46.008;11.144;2023-09-12T12:57:43;28.90;97.30
45643;DHT22;31358;46.008;11.144;2023-09-12T13:00:16;29.10;97.70
45643;DHT22;31358;46.008;11.144;2023-09-12T13:02:43;29.20;97.80
45643;DHT22;31358;46.008;11.144;2023-09-12T13:05:29;29.00;97.40
45643;DHT22;31358;46.008;11.144;2023-09-12T13:07:55;29.00;97.30
45643;DHT22;31358;46.008;11.144;2023-09-12T13:10:22;29.20;97.60
45643;DHT22;31358;46.008;11.144;2023-09-12T13:12:49;29.00;97.10
45643;DHT22;31358;46.008;11.144;2023-09-12T13:15:15;29.00;97.90
45643;DHT22;31358;46.008;11.144;2023-09-12T13:17:43;29.30;97.80
45643;DHT22;31358;46.008;11.144;2023-09-12T13:20:09;29.20;97.00
45643;DHT22;31358;46.008;11.144;2023-09-12T13:22:36;29.30;97.20
45643;DHT22;31358;46.008;11.144;2023-09-12T13:25:02;29.20;97.20
45643;DHT22;31358;46.008;11.144;2023-09-12T13:27:28;29.10;97.20
45643;DHT22;31358;46.008;11.144;2023-09-12T13:29:54;29.20;97.60
45643;DHT22;31358;46.008;11.144;2023-09-12T13:32:20;29.30;97.20
45643;DHT22;31358;46.008;11.144;2023-09-12T13:34:45;29.50;97.00
45643;DHT22;31358;46.008;11.144;2023-09-12T13:37:11;29.40;97.30
45643;DHT22;31358;46.008;11.144;2023-09-12T13:39:36;29.30;97.20
45643;DHT22;31358;46.008;11.144;2023-09-12T13:42:02;29.30;97.40
45643;DHT22;31358;46.008;11.144;2023-09-12T13:44:33;29.40;97.80
45643;DHT22;31358;46.008;11.144;2023-09-12T13:46:58;29.50;97.30
45643;DHT22;31358;46.008;11.144;2023-09-12T13:49:24;29.50;97.10
45643;DHT22;31358;46.008;11.144;2023-09-12T13:51:49;29.50;97.50
45643;DHT22;31358;46.008;11.144;2023-09-12T13:54:15;29.60;97.80
45643;DHT22;31358;46.008;11.144;2023-09-12T13:56:41;29.70;97.30
45643;DHT22;31358;46.008;11.144;2023-09-12T13:59:07;29.40;96.90
45643;DHT22;31358;46.008;11.144;2023-09-12T14:01:33;29.30;96.90
45643;DHT22;31358;46.008;11.144;2023-09-12T14:03:58;29.40;97.10
45643;DHT22;31358;46.008;11.144;2023-09-12T14:06:24;29.40;97.30
45643;DHT22;31358;46.008;11.144;2023-09-12T14:08:50;29.50;96.90
45643;DHT22;31358;46.008;11.144;2023-09-12T14:11:17;29.60;97.20
45643;DHT22;31358;46.008;11.144;2023-09-12T14:13:43;29.40;96.70
45643;DHT22;31358;46.008;11.144;2023-09-12T14:16:08;29.50;97.00
45643;DHT22;31358;46.008;11.144;2023-09-12T14:18:34;29.70;97.20
45643;DHT22;31358;46.008;11.144;2023-09-12T14:21:00;29.50;96.60
45643;DHT22;31358;46.008;11.144;2023-09-12T14:23:26;29.60;96.70
45643;DHT22;31358;46.008;11.144;2023-09-12T14:25:51;29.50;96.70
45643;DHT22;31358;46.008;11.144;2023-09-12T14:28:17;29.70;97.20
45643;DHT22;31358;46.008;11.144;2023-09-12T14:30:43;29.80;97.10
45643;DHT22;31358;46.008;11.144;2023-09-12T14:33:10;29.80;97.20
45643;DHT22;31358;46.008;11.144;2023-09-12T14:35:37;29.80;97.10
45643;DHT22;31358;46.008;11.144;2023-09-12T14:38:03;29.50;96.50
45643;DHT22;31358;46.008;11.144;2023-09-12T14:40:29;29.60;96.80
45643;DHT22;31358;46.008;11.144;2023-09-12T14:42:55;29.40;96.90
45643;DHT22;31358;46.008;11.144;2023-09-12T14:45:21;29.40;96.80
45643;DHT22;31358;46.008;11.144;2023-09-12T14:47:47;29.50;97.00
45643;DHT22;31358;46.008;11.144;2023-09-12T14:50:13;29.40;96.70
45643;DHT22;31358;46.008;11.144;2023-09-12T14:52:38;29.30;96.70
45643;DHT22;31358;46.008;11.144;2023-09-12T14:55:05;29.40;96.80
45643;DHT22;31358;46.008;11.144;2023-09-12T14:57:33;29.40;97.20
45643;DHT22;31358;46.008;11.144;2023-09-12T14:59:58;29.40;96.80
45643;DHT22;31358;46.008;11.144;2023-09-12T15:02:26;29.40;97.20
45643;DHT22;31358;46.008;11.144;2023-09-12T15:05:00;29.30;96.60
45643;DHT22;31358;46.008;11.144;2023-09-12T15:07:27;29.20;96.70
45643;DHT22;31358;46.008;11.144;2023-09-12T15:09:55;29.20;96.60
45643;DHT22;31358;46.008;11.144;2023-09-12T15:12:20;29.20;96.60
45643;DHT22;31358;46.008;11.144;2023-09-12T15:14:46;29.20;96.70
45643;DHT22;31358;46.008;11.144;2023-09-12T15:17:12;29.10;96.80
45643;DHT22;31358;46.008;11.144;2023-09-12T15:19:37;28.90;96.70
45643;DHT22;31358;46.008;11.144;2023-09-12T15:22:03;28.90;97.10
45643;DHT22;31358;46.008;11.144;2023-09-12T15:24:29;28.80;96.90
45643;DHT22;31358;46.008;11.144;2023-09-12T15:26:54;28.90;97.00
45643;DHT22;31358;46.008;11.144;2023-09-12T15:29:20;28.90;97.00
45643;DHT22;31358;46.008;11.144;2023-09-12T15:31:46;28.80;97.20